createdAt,value
2023-02-04T00:00:16.639Z,13.80
2023-02-04T00:02:47.164Z,13.80
2023-02-04T00:05:14.519Z,13.80
2023-02-04T00:07:41.730Z,13.80
2023-02-04T00:10:15.309Z,13.80
2023-02-04T00:12:42.636Z,13.80
2023-02-04T00:15:10.867Z,13.80
2023-02-04T00:17:38.298Z,13.80
2023-02-04T00:20:06.066Z,13.80
2023-02-04T00:22:33.115Z,13.80
2023-02-04T00:25:00.158Z,13.80
2023-02-04T00:27:27.311Z,13.80
2023-02-04T00:29:55.060Z,13.80
2023-02-04T00:32:22.332Z,13.80
2023-02-04T00:34:49.762Z,13.80
2023-02-04T00:37:17.035Z,13.80
2023-02-04T00:39:51.565Z,13.80
2023-02-04T00:42:18.931Z,13.80
2023-02-04T00:44:46.261Z,13.80
2023-02-04T00:47:13.751Z,13.80
2023-02-04T00:49:41.685Z,13.80
2023-02-04T00:52:14.846Z,13.80
2023-02-04T00:54:41.973Z,13.80
2023-02-04T00:57:11.620Z,13.80
2023-02-04T00:59:39.177Z,13.80
2023-02-04T01:02:13.581Z,13.90
2023-02-04T01:04:40.723Z,13.80
2023-02-04T01:07:07.686Z,13.80
2023-02-04T01:09:34.842Z,13.80
2023-02-04T01:12:02.027Z,13.80
2023-02-04T01:14:29.165Z,13.80
2023-02-04T01:16:56.189Z,13.80
2023-02-04T01:19:24.386Z,13.80
2023-02-04T01:21:51.408Z,13.80
2023-02-04T01:24:18.536Z,13.80
2023-02-04T01:27:04.414Z,13.80
2023-02-04T01:29:36.154Z,13.80
2023-02-04T01:32:03.169Z,13.90
2023-02-04T01:34:31.785Z,13.80
2023-02-04T01:36:58.867Z,13.80
2023-02-04T01:39:26.007Z,13.80
2023-02-04T01:41:53.123Z,13.80
2023-02-04T01:44:20.131Z,13.80
2023-02-04T01:46:47.145Z,13.90
2023-02-04T01:49:14.437Z,13.80
2023-02-04T01:51:41.886Z,13.80
2023-02-04T01:54:12.495Z,13.80
2023-02-04T01:56:40.938Z,13.80
2023-02-04T01:59:15.934Z,13.80
2023-02-04T02:01:44.341Z,13.80
2023-02-04T02:04:17.638Z,13.80
2023-02-04T02:06:52.474Z,13.80
2023-02-04T02:09:19.762Z,13.70
2023-02-04T02:11:47.071Z,13.70
2023-02-04T02:14:14.421Z,13.70
2023-02-04T02:16:41.936Z,13.70
2023-02-04T02:19:14.898Z,13.70
2023-02-04T02:21:53.200Z,13.70
2023-02-04T02:24:27.362Z,13.70
2023-02-04T02:26:56.468Z,13.70
2023-02-04T02:29:25.866Z,13.70
2023-02-04T02:31:54.571Z,13.70
2023-02-04T02:34:21.612Z,13.70
2023-02-04T02:36:48.630Z,13.80
2023-02-04T02:39:15.698Z,13.70
2023-02-04T02:41:42.740Z,13.80
2023-02-04T02:44:11.552Z,13.80
2023-02-04T02:46:43.662Z,13.70
2023-02-04T02:49:17.497Z,13.70
2023-02-04T02:51:45.572Z,13.70
2023-02-04T02:54:31.119Z,13.70
2023-02-04T02:57:01.557Z,13.70
2023-02-04T02:59:28.605Z,13.70
2023-02-04T03:01:59.640Z,13.70
2023-02-04T03:04:31.298Z,13.70
2023-02-04T03:06:58.732Z,13.70
2023-02-04T03:09:27.070Z,13.70
2023-02-04T03:11:54.488Z,13.70
2023-02-04T03:14:24.305Z,13.70
2023-02-04T03:16:53.468Z,13.70
2023-02-04T03:19:21.302Z,13.70
2023-02-04T03:21:49.741Z,13.70
2023-02-04T03:24:16.961Z,13.70
2023-02-04T03:26:44.228Z,13.70
2023-02-04T03:29:12.718Z,13.70
2023-02-04T03:31:39.996Z,13.70
2023-02-04T03:34:07.826Z,13.70
2023-02-04T03:36:34.840Z,13.70
2023-02-04T03:39:02.031Z,13.70
2023-02-04T03:41:30.356Z,13.70
2023-02-04T03:43:57.423Z,13.70
2023-02-04T03:46:26.021Z,13.70
2023-02-04T03:48:53.131Z,13.70
2023-02-04T03:51:20.147Z,13.70
2023-02-04T03:53:47.156Z,13.70
2023-02-04T03:56:14.352Z,13.70
2023-02-04T03:58:44.438Z,13.70
2023-02-04T04:01:11.503Z,13.70
2023-02-04T04:03:38.591Z,13.70
2023-02-04T04:06:08.760Z,13.70
2023-02-04T04:08:36.329Z,13.70
2023-02-04T04:11:03.713Z,13.70
2023-02-04T04:13:30.778Z,13.70
2023-02-04T04:15:57.995Z,13.70
2023-02-04T04:18:24.994Z,13.70
2023-02-04T04:20:51.985Z,13.70
2023-02-04T04:23:18.979Z,13.60
2023-02-04T04:25:46.016Z,13.60
2023-02-04T04:28:13.196Z,13.70
2023-02-04T04:30:40.314Z,13.60
2023-02-04T04:33:07.409Z,13.60
2023-02-04T04:35:34.859Z,13.60
2023-02-04T04:38:02.766Z,13.60
2023-02-04T04:40:30.080Z,13.60
2023-02-04T04:42:57.560Z,13.60
2023-02-04T04:45:24.518Z,13.60
2023-02-04T04:47:51.593Z,13.60
2023-02-04T04:50:18.716Z,13.60
2023-02-04T04:52:45.765Z,13.60
2023-02-04T04:55:12.819Z,13.50
2023-02-04T04:57:39.916Z,13.50
2023-02-04T05:00:08.391Z,13.60
2023-02-04T05:02:35.390Z,13.60
2023-02-04T05:05:02.508Z,13.60
2023-02-04T05:07:29.511Z,13.60
2023-02-04T05:09:56.487Z,13.60
2023-02-04T05:12:23.574Z,13.60
2023-02-04T05:14:50.673Z,13.60
2023-02-04T05:17:18.177Z,13.60
2023-02-04T05:19:45.459Z,13.60
2023-02-04T05:22:12.924Z,13.60
2023-02-04T05:24:39.916Z,13.60
2023-02-04T05:27:06.950Z,13.60
2023-02-04T05:29:34.012Z,13.60
2023-02-04T05:32:01.086Z,13.60
2023-02-04T05:34:28.166Z,13.60
2023-02-04T05:36:55.236Z,13.60
2023-02-04T05:39:22.679Z,13.50
2023-02-04T05:41:49.884Z,13.60
2023-02-04T05:44:16.938Z,13.60
2023-02-04T05:47:28.531Z,13.60
2023-02-04T05:50:16.440Z,13.60
2023-02-04T05:53:26.538Z,13.60
2023-02-04T05:59:08.339Z,13.60
2023-02-04T06:02:51.310Z,13.60
2023-02-04T06:12:33.529Z,13.60
2023-02-04T06:15:44.962Z,13.60
2023-02-04T06:21:39.132Z,13.50
2023-02-04T06:24:34.193Z,13.50
2023-02-04T06:27:40.076Z,13.50
2023-02-04T06:30:39.433Z,13.50
2023-02-04T06:40:12.746Z,13.40
2023-02-04T06:57:35.153Z,13.40
2023-02-04T07:00:02.348Z,13.40
2023-02-04T07:02:29.414Z,13.40
2023-02-04T07:05:28.420Z,13.40
2023-02-04T07:07:55.521Z,13.40
2023-02-04T07:10:22.467Z,13.40
2023-02-04T07:12:49.554Z,13.40
2023-02-04T07:15:17.138Z,13.40
2023-02-04T07:17:44.294Z,13.40
2023-02-04T07:20:12.904Z,13.40
2023-02-04T07:22:39.937Z,13.40
2023-02-04T07:25:07.316Z,13.40
2023-02-04T07:27:34.471Z,13.40
2023-02-04T07:30:01.546Z,13.40
2023-02-04T07:32:32.863Z,13.40
2023-02-04T07:35:00.931Z,13.40
2023-02-04T07:38:10.083Z,13.40
2023-02-04T07:41:05.112Z,13.40
2023-02-04T07:50:18.518Z,13.40
2023-02-04T07:53:08.987Z,13.40
2023-02-04T07:56:24.658Z,13.40
2023-02-04T08:05:38.045Z,13.30
2023-02-04T08:08:20.188Z,13.40
2023-02-04T08:11:21.321Z,13.40
2023-02-04T08:13:52.035Z,13.40
2023-02-04T08:16:19.226Z,13.40
2023-02-04T08:18:46.231Z,13.40
2023-02-04T08:21:13.190Z,13.40
2023-02-04T08:23:41.930Z,13.40
2023-02-04T08:26:12.428Z,13.30
2023-02-04T08:28:39.604Z,13.40
2023-02-04T08:31:07.460Z,13.40
2023-02-04T08:33:34.617Z,13.40
2023-02-04T08:36:01.569Z,13.40
2023-02-04T08:38:29.168Z,13.40
2023-02-04T08:40:56.520Z,13.40
2023-02-04T08:43:23.649Z,13.40
2023-02-04T08:45:50.602Z,13.50
2023-02-04T08:48:17.674Z,13.50
2023-02-04T08:50:44.614Z,13.50
2023-02-04T08:53:12.160Z,13.50
2023-02-04T08:55:39.413Z,13.50
2023-02-04T08:58:06.456Z,13.50
2023-02-04T09:00:33.737Z,13.50
2023-02-04T09:03:00.983Z,13.50
2023-02-04T09:05:28.032Z,13.50
2023-02-04T09:07:55.018Z,13.50
2023-02-04T09:10:21.957Z,13.50
2023-02-04T09:12:49.123Z,13.50
2023-02-04T09:15:16.145Z,13.50
2023-02-04T09:17:44.069Z,13.50
2023-02-04T09:20:11.683Z,13.50
2023-02-04T09:22:38.903Z,13.50
2023-02-04T09:25:06.186Z,13.50
2023-02-04T09:27:33.129Z,13.50
2023-02-04T09:30:00.307Z,13.50
2023-02-04T09:32:27.280Z,13.50
2023-02-04T09:34:54.200Z,13.50
2023-02-04T09:37:21.182Z,13.50
2023-02-04T09:39:48.255Z,13.50
2023-02-04T09:42:16.086Z,13.50
2023-02-04T09:44:45.414Z,13.50
2023-02-04T09:47:15.730Z,13.50
2023-02-04T09:49:47.483Z,13.50
2023-02-04T09:52:16.410Z,13.50
2023-02-04T09:54:43.624Z,13.50
2023-02-04T09:57:17.381Z,13.50
2023-02-04T09:59:45.210Z,13.50
2023-02-04T10:02:22.827Z,13.50
2023-02-04T10:04:51.899Z,13.50
2023-02-04T10:07:24.250Z,13.50
2023-02-04T10:10:00.821Z,13.50
2023-02-04T10:12:28.264Z,13.50
2023-02-04T10:14:55.509Z,13.50
2023-02-04T10:17:27.483Z,13.60
2023-02-04T10:19:54.436Z,13.50
2023-02-04T10:22:22.809Z,13.60
2023-02-04T10:30:53.401Z,13.50
2023-02-04T10:33:27.289Z,13.50
2023-02-04T10:35:56.982Z,13.50
2023-02-04T10:38:24.900Z,13.50
2023-02-04T12:16:18.649Z,13.70
2023-02-04T12:19:00.742Z,13.70
2023-02-04T12:52:23.767Z,13.80
2023-02-04T12:55:36.842Z,13.80
2023-02-04T12:58:04.245Z,13.80
2023-02-04T13:00:31.516Z,13.80
2023-02-04T13:03:05.456Z,13.80
2023-02-04T13:05:34.871Z,13.80
2023-02-04T13:11:05.476Z,13.80
2023-02-04T13:13:32.536Z,13.80
2023-02-04T13:15:59.698Z,13.80
2023-02-04T13:18:27.206Z,13.80
2023-02-04T13:27:11.451Z,13.90
2023-02-04T13:36:20.423Z,13.90
2023-02-04T15:17:16.652Z,14.00
2023-02-04T15:19:49.108Z,14.00
2023-02-04T15:22:16.414Z,14.00
2023-02-04T15:27:32.606Z,14.00
2023-02-04T15:30:11.159Z,14.00
2023-02-04T16:19:03.102Z,14.00
2023-02-04T18:18:57.560Z,14.10
2023-02-04T18:36:36.900Z,14.10
2023-02-04T18:39:25.669Z,14.10
2023-02-04T18:42:07.562Z,14.20
2023-02-04T18:44:38.285Z,14.20
2023-02-04T18:47:32.602Z,14.20
2023-02-04T18:50:16.265Z,14.20
2023-02-04T18:52:44.331Z,14.20
2023-02-04T18:55:27.733Z,14.20
2023-02-04T19:01:02.204Z,14.20
2023-02-04T19:03:30.270Z,14.20
2023-02-04T19:06:07.275Z,14.20
2023-02-04T19:08:44.514Z,14.20
2023-02-04T19:11:55.088Z,14.20
2023-02-04T19:14:38.892Z,14.20
2023-02-04T19:17:14.587Z,14.20
2023-02-04T19:19:46.301Z,14.20
2023-02-04T19:22:47.497Z,14.20
2023-02-04T19:26:23.261Z,14.20
2023-02-04T19:29:16.558Z,14.20
2023-02-04T19:31:46.601Z,14.20
2023-02-04T19:34:38.370Z,14.20
2023-02-04T19:37:27.439Z,14.20
2023-02-04T19:39:55.807Z,14.20
2023-02-04T19:42:34.737Z,14.20
2023-02-04T20:28:40.099Z,14.30
2023-02-04T20:31:28.738Z,14.30
2023-02-04T20:33:59.588Z,14.30
2023-02-04T20:36:26.899Z,14.30
2023-02-04T20:39:17.315Z,14.30
2023-02-04T20:41:44.373Z,14.30
2023-02-04T20:44:40.039Z,14.30
2023-02-04T20:47:18.208Z,14.30
2023-02-04T20:49:55.282Z,14.30
2023-02-04T20:52:40.837Z,14.30
2023-02-04T21:21:28.889Z,14.20
2023-02-04T21:23:56.150Z,14.20
2023-02-04T21:26:23.331Z,14.20
2023-02-04T21:28:50.552Z,14.20
2023-02-04T21:31:44.933Z,14.20
2023-02-04T21:34:12.495Z,14.20
2023-02-04T21:36:53.222Z,14.20
2023-02-04T21:39:23.893Z,14.20
2023-02-04T21:42:10.115Z,14.30
2023-02-04T21:44:38.201Z,14.20
2023-02-04T22:05:48.087Z,14.20
2023-02-04T22:31:43.490Z,14.10
2023-02-04T22:59:00.106Z,14.20
2023-02-04T23:13:32.375Z,14.20
2023-02-04T23:16:00.891Z,14.20
2023-02-04T23:33:30.652Z,14.20
2023-02-04T23:35:59.104Z,14.20
2023-02-04T23:41:29.483Z,14.20
2023-02-04T23:43:56.559Z,14.20
2023-02-04T23:46:23.586Z,14.20
2023-02-04T23:48:50.803Z,14.20
2023-02-04T23:51:17.838Z,14.20
2023-02-04T23:53:44.906Z,14.20
2023-02-04T23:56:12.132Z,14.20
2023-02-04T23:58:39.203Z,14.20
